sensor_id;sensor_type;location;lat;lon;timestamp;pressure;altitude;pressure_sealevel;temperature;humidity
75409;BME280;63979;55.644;37.734;2023-07-20T00:02:35;98802.38;;;15.16;67.27
75409;BME280;63979;55.644;37.734;2023-07-20T00:07:36;98772.88;;;14.98;66.73
75409;BME280;63979;55.644;37.734;2023-07-20T00:12:38;98820.03;;;15.18;67.13
75409;BME280;63979;55.644;37.734;2023-07-20T00:17:39;98807.00;;;15.06;67.47
75409;BME280;63979;55.644;37.734;2023-07-20T00:22:41;98810.19;;;15.01;68.00
75409;BME280;63979;55.644;37.734;2023-07-20T00:27:41;98818.63;;;15.06;67.45
75409;BME280;63979;55.644;37.734;2023-07-20T00:32:43;98810.41;;;14.90;67.77
75409;BME280;63979;55.644;37.734;2023-07-20T00:37:44;98819.56;;;14.97;67.66
75409;BME280;63979;55.644;37.734;2023-07-20T00:42:45;98779.50;;;14.60;68.03
75409;BME280;63979;55.644;37.734;2023-07-20T00:47:46;98809.75;;;14.88;68.17
75409;BME280;63979;55.644;37.734;2023-07-20T00:52:48;98815.59;;;14.83;68.28
75409;BME280;63979;55.644;37.734;2023-07-20T00:57:49;98820.50;;;14.88;68.20
75409;BME280;63979;55.644;37.734;2023-07-20T01:02:51;98819.91;;;14.76;68.39
75409;BME280;63979;55.644;37.734;2023-07-20T01:07:58;98828.38;;;14.89;68.36
75409;BME280;63979;55.644;37.734;2023-07-20T01:13:01;98828.19;;;14.83;68.72
75409;BME280;63979;55.644;37.734;2023-07-20T01:18:02;98831.66;;;14.75;68.78
75409;BME280;63979;55.644;37.734;2023-07-20T01:28:51;98830.34;;;14.79;68.80
75409;BME280;63979;55.644;37.734;2023-07-20T01:33:58;98833.03;;;14.79;68.48
75409;BME280;63979;55.644;37.734;2023-07-20T01:39:01;98830.19;;;14.81;69.14
75409;BME280;63979;55.644;37.734;2023-07-20T01:44:03;98834.03;;;14.78;68.92
75409;BME280;63979;55.644;37.734;2023-07-20T01:49:04;98828.28;;;14.73;69.14
75409;BME280;63979;55.644;37.734;2023-07-20T01:54:06;98840.53;;;14.93;68.52
75409;BME280;63979;55.644;37.734;2023-07-20T01:59:07;98841.66;;;14.91;68.95
75409;BME280;63979;55.644;37.734;2023-07-20T02:04:08;98834.59;;;14.90;68.82
75409;BME280;63979;55.644;37.734;2023-07-20T02:09:09;98837.38;;;14.98;69.02
75409;BME280;63979;55.644;37.734;2023-07-20T02:14:10;98834.25;;;14.85;68.78
75409;BME280;63979;55.644;37.734;2023-07-20T02:19:14;98841.78;;;14.81;68.99
75409;BME280;63979;55.644;37.734;2023-07-20T02:24:15;98846.50;;;14.87;68.99
75409;BME280;63979;55.644;37.734;2023-07-20T02:29:16;98840.28;;;14.87;68.89
75409;BME280;63979;55.644;37.734;2023-07-20T02:34:17;98846.75;;;14.94;68.87
75409;BME280;63979;55.644;37.734;2023-07-20T02:39:18;98855.25;;;14.89;68.89
75409;BME280;63979;55.644;37.734;2023-07-20T02:44:20;98850.72;;;14.90;68.90
75409;BME280;63979;55.644;37.734;2023-07-20T02:49:21;98865.78;;;14.83;68.96
75409;BME280;63979;55.644;37.734;2023-07-20T02:54:22;98864.56;;;14.95;68.87
75409;BME280;63979;55.644;37.734;2023-07-20T02:59:23;98860.94;;;15.04;68.43
75409;BME280;63979;55.644;37.734;2023-07-20T03:04:27;98863.31;;;15.07;68.17
75409;BME280;63979;55.644;37.734;2023-07-20T03:09:28;98861.63;;;15.32;67.29
75409;BME280;63979;55.644;37.734;2023-07-20T03:14:29;98877.00;;;15.48;67.33
75409;BME280;63979;55.644;37.734;2023-07-20T03:19:30;98877.75;;;15.58;67.07
75409;BME280;63979;55.644;37.734;2023-07-20T03:24:31;98826.16;;;15.28;67.06
75409;BME280;63979;55.644;37.734;2023-07-20T03:29:33;98878.50;;;15.68;66.53
75409;BME280;63979;55.644;37.734;2023-07-20T03:34:34;98877.69;;;15.76;66.78
75409;BME280;63979;55.644;37.734;2023-07-20T03:39:35;98882.91;;;15.77;66.06
75409;BME280;63979;55.644;37.734;2023-07-20T03:44:37;98869.16;;;15.88;65.65
75409;BME280;63979;55.644;37.734;2023-07-20T03:49:38;98877.31;;;16.13;65.26
75409;BME280;63979;55.644;37.734;2023-07-20T03:54:39;98851.94;;;16.23;64.41
75409;BME280;63979;55.644;37.734;2023-07-20T03:59:44;98874.38;;;16.57;64.66
75409;BME280;63979;55.644;37.734;2023-07-20T04:04:46;98878.81;;;16.98;63.09
75409;BME280;63979;55.644;37.734;2023-07-20T04:09:47;98882.44;;;17.54;61.29
75409;BME280;63979;55.644;37.734;2023-07-20T04:14:48;98878.94;;;18.01;59.65
75409;BME280;63979;55.644;37.734;2023-07-20T04:19:49;98870.69;;;18.56;57.26
75409;BME280;63979;55.644;37.734;2023-07-20T04:24:50;98880.38;;;19.34;55.05
75409;BME280;63979;55.644;37.734;2023-07-20T04:29:51;98872.56;;;19.01;56.28
75409;BME280;63979;55.644;37.734;2023-07-20T04:34:52;98897.41;;;18.82;56.30
75409;BME280;63979;55.644;37.734;2023-07-20T04:39:53;98886.81;;;18.73;56.48
75409;BME280;63979;55.644;37.734;2023-07-20T04:44:54;98900.88;;;18.68;56.81
75409;BME280;63979;55.644;37.734;2023-07-20T04:49:55;98889.59;;;18.87;56.06
75409;BME280;63979;55.644;37.734;2023-07-20T04:54:56;98851.34;;;19.13;55.21
75409;BME280;63979;55.644;37.734;2023-07-20T04:59:58;98893.91;;;19.19;54.80
75409;BME280;63979;55.644;37.734;2023-07-20T05:04:59;98898.00;;;18.92;55.61
75409;BME280;63979;55.644;37.734;2023-07-20T05:10:00;98899.19;;;18.67;55.47
75409;BME280;63979;55.644;37.734;2023-07-20T05:15:01;98905.59;;;18.74;55.22
75409;BME280;63979;55.644;37.734;2023-07-20T05:20:05;98893.06;;;19.19;53.96
75409;BME280;63979;55.644;37.734;2023-07-20T05:25:07;98859.38;;;20.10;51.94
75409;BME280;63979;55.644;37.734;2023-07-20T05:30:09;98904.53;;;22.23;46.50
75409;BME280;63979;55.644;37.734;2023-07-20T05:35:10;98907.91;;;23.98;41.46
75409;BME280;63979;55.644;37.734;2023-07-20T05:40:13;98878.50;;;24.89;39.55
75409;BME280;63979;55.644;37.734;2023-07-20T05:45:15;98902.66;;;24.54;38.92
75409;BME280;63979;55.644;37.734;2023-07-20T05:50:16;98903.13;;;25.21;39.02
75409;BME280;63979;55.644;37.734;2023-07-20T05:55:17;98909.41;;;26.51;35.95
75409;BME280;63979;55.644;37.734;2023-07-20T06:00:19;98908.56;;;27.52;33.90
75409;BME280;63979;55.644;37.734;2023-07-20T06:05:26;98912.69;;;28.77;31.68
75409;BME280;63979;55.644;37.734;2023-07-20T06:10:27;98915.22;;;30.46;28.12
75409;BME280;63979;55.644;37.734;2023-07-20T06:15:31;98930.28;;;30.82;27.11
75409;BME280;63979;55.644;37.734;2023-07-20T06:20:33;98924.69;;;30.99;27.32
75409;BME280;63979;55.644;37.734;2023-07-20T06:25:34;98917.31;;;29.62;29.64
75409;BME280;63979;55.644;37.734;2023-07-20T06:30:35;98916.56;;;31.14;26.09
75409;BME280;63979;55.644;37.734;2023-07-20T06:35:36;98922.53;;;30.57;26.87
75409;BME280;63979;55.644;37.734;2023-07-20T06:40:37;98916.47;;;31.04;26.40
75409;BME280;63979;55.644;37.734;2023-07-20T06:45:38;98918.63;;;33.18;23.76
75409;BME280;63979;55.644;37.734;2023-07-20T06:50:39;98932.72;;;33.06;22.43
75409;BME280;63979;55.644;37.734;2023-07-20T06:55:42;98851.63;;;32.08;23.89
75409;BME280;63979;55.644;37.734;2023-07-20T07:00:43;98919.78;;;33.47;23.14
75409;BME280;63979;55.644;37.734;2023-07-20T07:05:45;98926.44;;;34.02;22.29
75409;BME280;63979;55.644;37.734;2023-07-20T07:10:46;98918.44;;;31.68;23.52
75409;BME280;63979;55.644;37.734;2023-07-20T07:15:47;98931.41;;;34.10;21.87
75409;BME280;63979;55.644;37.734;2023-07-20T07:20:52;98941.00;;;32.29;23.48
75409;BME280;63979;55.644;37.734;2023-07-20T07:25:53;98940.25;;;32.53;22.64
75409;BME280;63979;55.644;37.734;2023-07-20T07:30:55;98899.06;;;31.94;23.70
75409;BME280;63979;55.644;37.734;2023-07-20T07:35:58;98952.91;;;33.02;22.91
75409;BME280;63979;55.644;37.734;2023-07-20T07:40:59;98931.16;;;33.87;21.00
75409;BME280;63979;55.644;37.734;2023-07-20T07:46:00;98911.09;;;32.88;21.48
75409;BME280;63979;55.644;37.734;2023-07-20T07:51:01;98925.94;;;32.62;22.19
75409;BME280;63979;55.644;37.734;2023-07-20T07:56:03;98934.25;;;32.72;21.69
75409;BME280;63979;55.644;37.734;2023-07-20T08:01:04;98942.63;;;34.60;19.81
75409;BME280;63979;55.644;37.734;2023-07-20T08:06:06;98953.28;;;34.97;18.65
75409;BME280;63979;55.644;37.734;2023-07-20T08:11:08;98947.69;;;32.48;21.93
75409;BME280;63979;55.644;37.734;2023-07-20T08:16:09;98938.97;;;29.13;26.40
75409;BME280;63979;55.644;37.734;2023-07-20T08:21:10;98943.84;;;27.49;29.02
75409;BME280;63979;55.644;37.734;2023-07-20T08:26:11;98946.81;;;30.38;25.30
75409;BME280;63979;55.644;37.734;2023-07-20T08:31:12;98938.63;;;33.40;21.89
75409;BME280;63979;55.644;37.734;2023-07-20T08:36:13;98963.72;;;33.03;21.34
75409;BME280;63979;55.644;37.734;2023-07-20T08:41:14;98937.53;;;28.82;26.37
75409;BME280;63979;55.644;37.734;2023-07-20T08:46:16;98946.47;;;31.00;24.30
75409;BME280;63979;55.644;37.734;2023-07-20T08:51:18;98938.25;;;33.06;22.32
75409;BME280;63979;55.644;37.734;2023-07-20T08:56:20;98942.63;;;35.19;19.67
75409;BME280;63979;55.644;37.734;2023-07-20T09:01:23;98929.19;;;31.32;24.19
75409;BME280;63979;55.644;37.734;2023-07-20T09:06:26;98945.47;;;31.98;23.80
75409;BME280;63979;55.644;37.734;2023-07-20T09:11:27;98931.53;;;30.53;24.23
75409;BME280;63979;55.644;37.734;2023-07-20T09:16:28;98973.91;;;31.66;23.46
75409;BME280;63979;55.644;37.734;2023-07-20T09:21:30;98943.41;;;31.51;24.31
75409;BME280;63979;55.644;37.734;2023-07-20T09:26:40;98954.69;;;31.76;24.37
75409;BME280;63979;55.644;37.734;2023-07-20T09:31:41;98961.28;;;27.66;29.31
75409;BME280;63979;55.644;37.734;2023-07-20T09:36:43;98925.28;;;24.62;34.02
75409;BME280;63979;55.644;37.734;2023-07-20T09:41:44;98971.22;;;23.41;38.41
75409;BME280;63979;55.644;37.734;2023-07-20T09:46:46;98949.84;;;23.38;38.22
75409;BME280;63979;55.644;37.734;2023-07-20T09:51:49;98952.34;;;23.19;38.08
75409;BME280;63979;55.644;37.734;2023-07-20T09:56:51;98962.44;;;25.14;35.98
75409;BME280;63979;55.644;37.734;2023-07-20T10:01:54;98916.25;;;27.32;31.48
75409;BME280;63979;55.644;37.734;2023-07-20T10:06:59;98949.78;;;29.03;29.12
75409;BME280;63979;55.644;37.734;2023-07-20T10:12:07;98948.06;;;28.73;29.30
75409;BME280;63979;55.644;37.734;2023-07-20T10:17:11;98949.03;;;28.15;31.04
75409;BME280;63979;55.644;37.734;2023-07-20T10:22:16;98957.63;;;28.31;29.96
75409;BME280;63979;55.644;37.734;2023-07-20T10:27:20;98962.00;;;29.52;29.86
75409;BME280;63979;55.644;37.734;2023-07-20T10:32:21;98958.53;;;30.29;27.86
75409;BME280;63979;55.644;37.734;2023-07-20T10:37:48;98972.06;;;32.61;24.56
75409;BME280;63979;55.644;37.734;2023-07-20T10:42:50;98974.00;;;32.61;23.92
75409;BME280;63979;55.644;37.734;2023-07-20T10:47:55;98931.94;;;30.39;27.33
75409;BME280;63979;55.644;37.734;2023-07-20T10:53:16;98945.53;;;28.95;30.44
75409;BME280;63979;55.644;37.734;2023-07-20T10:58:18;98956.06;;;28.35;30.72
75409;BME280;63979;55.644;37.734;2023-07-20T11:03:30;98952.94;;;28.08;32.35
75409;BME280;63979;55.644;37.734;2023-07-20T11:08:39;98960.84;;;27.39;33.36
75409;BME280;63979;55.644;37.734;2023-07-20T11:14:00;98965.16;;;26.57;34.98
75409;BME280;63979;55.644;37.734;2023-07-20T11:19:02;98967.88;;;26.57;34.69
75409;BME280;63979;55.644;37.734;2023-07-20T11:24:07;98969.13;;;26.42;35.57
75409;BME280;63979;55.644;37.734;2023-07-20T11:29:10;98977.28;;;26.24;36.01
75409;BME280;63979;55.644;37.734;2023-07-20T11:34:13;98978.03;;;25.63;38.15
75409;BME280;63979;55.644;37.734;2023-07-20T11:39:15;98997.03;;;26.51;36.02
75409;BME280;63979;55.644;37.734;2023-07-20T11:44:17;98980.78;;;26.31;35.50
75409;BME280;63979;55.644;37.734;2023-07-20T11:49:19;98994.28;;;27.18;35.37
75409;BME280;63979;55.644;37.734;2023-07-20T11:54:20;98988.75;;;30.07;30.30
75409;BME280;63979;55.644;37.734;2023-07-20T11:59:21;98978.88;;;29.44;31.25
75409;BME280;63979;55.644;37.734;2023-07-20T12:04:23;98978.19;;;26.91;35.00
75409;BME280;63979;55.644;37.734;2023-07-20T12:09:24;98961.84;;;25.62;37.99
75409;BME280;63979;55.644;37.734;2023-07-20T12:14:25;98985.25;;;24.81;39.92
75409;BME280;63979;55.644;37.734;2023-07-20T12:19:26;98967.06;;;23.78;43.07
75409;BME280;63979;55.644;37.734;2023-07-20T12:24:27;99001.78;;;24.48;42.37
75409;BME280;63979;55.644;37.734;2023-07-20T12:29:29;99004.38;;;24.04;42.08
75409;BME280;63979;55.644;37.734;2023-07-20T12:34:30;98992.84;;;23.88;42.64
75409;BME280;63979;55.644;37.734;2023-07-20T12:39:31;98994.09;;;23.99;43.93
75409;BME280;63979;55.644;37.734;2023-07-20T12:44:33;99014.19;;;23.32;45.32
75409;BME280;63979;55.644;37.734;2023-07-20T12:49:34;99018.50;;;21.96;48.84
75409;BME280;63979;55.644;37.734;2023-07-20T12:54:36;98999.13;;;21.29;47.96
75409;BME280;63979;55.644;37.734;2023-07-20T12:59:37;98984.00;;;21.05;48.23
75409;BME280;63979;55.644;37.734;2023-07-20T13:04:38;98990.38;;;21.55;49.56
75409;BME280;63979;55.644;37.734;2023-07-20T13:09:39;98981.44;;;22.17;48.26
75409;BME280;63979;55.644;37.734;2023-07-20T13:14:40;98981.31;;;23.73;42.19
75409;BME280;63979;55.644;37.734;2023-07-20T13:19:41;98983.16;;;24.83;42.90
75409;BME280;63979;55.644;37.734;2023-07-20T13:24:44;98978.47;;;24.52;40.48
75409;BME280;63979;55.644;37.734;2023-07-20T13:29:47;98964.75;;;24.72;42.61
75409;BME280;63979;55.644;37.734;2023-07-20T13:34:48;98968.22;;;24.21;42.37
75409;BME280;63979;55.644;37.734;2023-07-20T13:39:49;98962.78;;;24.21;42.79
75409;BME280;63979;55.644;37.734;2023-07-20T13:44:50;98947.97;;;23.98;41.86
75409;BME280;63979;55.644;37.734;2023-07-20T13:49:51;98964.16;;;23.59;42.01
75409;BME280;63979;55.644;37.734;2023-07-20T13:54:52;98947.09;;;23.18;41.81
75409;BME280;63979;55.644;37.734;2023-07-20T13:59:53;98954.44;;;23.17;44.60
75409;BME280;63979;55.644;37.734;2023-07-20T14:04:54;98959.75;;;22.78;44.03
75409;BME280;63979;55.644;37.734;2023-07-20T14:09:56;98946.63;;;22.40;45.86
75409;BME280;63979;55.644;37.734;2023-07-20T14:14:57;98926.25;;;22.70;45.76
75409;BME280;63979;55.644;37.734;2023-07-20T14:19:58;98933.97;;;22.19;44.35
75409;BME280;63979;55.644;37.734;2023-07-20T14:24:59;98962.91;;;22.27;45.27
75409;BME280;63979;55.644;37.734;2023-07-20T14:30:00;98960.69;;;22.50;45.03
75409;BME280;63979;55.644;37.734;2023-07-20T14:35:01;98975.34;;;22.97;44.00
75409;BME280;63979;55.644;37.734;2023-07-20T14:40:04;98964.50;;;23.50;42.25
75409;BME280;63979;55.644;37.734;2023-07-20T14:45:06;98958.25;;;23.95;41.78
75409;BME280;63979;55.644;37.734;2023-07-20T14:50:08;98967.25;;;23.96;41.67
75409;BME280;63979;55.644;37.734;2023-07-20T14:55:10;98972.91;;;23.88;41.50
75409;BME280;63979;55.644;37.734;2023-07-20T15:00:12;98967.03;;;23.51;42.21
75409;BME280;63979;55.644;37.734;2023-07-20T15:05:21;98967.44;;;23.55;42.90
75409;BME280;63979;55.644;37.734;2023-07-20T15:10:22;98970.38;;;23.33;41.82
75409;BME280;63979;55.644;37.734;2023-07-20T15:15:23;98960.28;;;23.21;42.06
75409;BME280;63979;55.644;37.734;2023-07-20T15:20:25;98966.56;;;23.15;42.13
75409;BME280;63979;55.644;37.734;2023-07-20T15:25:27;98976.88;;;22.65;43.39
75409;BME280;63979;55.644;37.734;2023-07-20T15:30:29;98978.44;;;22.39;44.97
75409;BME280;63979;55.644;37.734;2023-07-20T15:35:30;98984.41;;;22.22;44.54
75409;BME280;63979;55.644;37.734;2023-07-20T15:40:33;98987.88;;;22.09;43.31
75409;BME280;63979;55.644;37.734;2023-07-20T15:45:34;98981.09;;;21.98;43.45
75409;BME280;63979;55.644;37.734;2023-07-20T15:50:35;98968.94;;;21.94;44.03
75409;BME280;63979;55.644;37.734;2023-07-20T15:55:36;98965.81;;;21.97;42.08
75409;BME280;63979;55.644;37.734;2023-07-20T16:00:36;98975.66;;;21.98;39.64
75409;BME280;63979;55.644;37.734;2023-07-20T16:05:38;98970.91;;;21.79;39.90
75409;BME280;63979;55.644;37.734;2023-07-20T16:10:38;98972.31;;;21.68;38.59
75409;BME280;63979;55.644;37.734;2023-07-20T16:15:39;98953.41;;;21.32;39.31
75409;BME280;63979;55.644;37.734;2023-07-20T16:20:41;98993.41;;;21.66;39.29
75409;BME280;63979;55.644;37.734;2023-07-20T16:25:46;98990.47;;;21.68;39.73
75409;BME280;63979;55.644;37.734;2023-07-20T16:30:47;98999.66;;;21.67;39.87
75409;BME280;63979;55.644;37.734;2023-07-20T16:35:48;98989.34;;;21.56;39.88
75409;BME280;63979;55.644;37.734;2023-07-20T16:40:50;98992.66;;;21.51;40.78
75409;BME280;63979;55.644;37.734;2023-07-20T16:45:50;98997.16;;;21.23;41.07
75409;BME280;63979;55.644;37.734;2023-07-20T16:50:51;99014.88;;;21.40;41.62
75409;BME280;63979;55.644;37.734;2023-07-20T16:55:53;99008.50;;;21.26;42.06
75409;BME280;63979;55.644;37.734;2023-07-20T17:01:03;99020.31;;;21.04;42.27
75409;BME280;63979;55.644;37.734;2023-07-20T17:06:07;99024.41;;;21.29;42.36
75409;BME280;63979;55.644;37.734;2023-07-20T17:11:08;99028.59;;;20.96;43.03
75409;BME280;63979;55.644;37.734;2023-07-20T17:16:10;99041.97;;;20.97;43.33
75409;BME280;63979;55.644;37.734;2023-07-20T17:21:11;99002.59;;;20.50;44.24
75409;BME280;63979;55.644;37.734;2023-07-20T17:26:12;99036.25;;;20.56;44.58
75409;BME280;63979;55.644;37.734;2023-07-20T17:31:14;99058.03;;;20.48;44.60
75409;BME280;63979;55.644;37.734;2023-07-20T17:36:15;99064.19;;;20.42;44.37
75409;BME280;63979;55.644;37.734;2023-07-20T17:41:17;99060.44;;;20.43;44.86
75409;BME280;63979;55.644;37.734;2023-07-20T17:46:18;99054.72;;;20.38;44.34
75409;BME280;63979;55.644;37.734;2023-07-20T17:51:19;99021.31;;;20.08;44.55
75409;BME280;63979;55.644;37.734;2023-07-20T17:56:21;99066.88;;;20.12;44.45
75409;BME280;63979;55.644;37.734;2023-07-20T18:01:21;99056.53;;;19.93;44.73
75409;BME280;63979;55.644;37.734;2023-07-20T18:06:23;99059.31;;;19.85;44.82
75409;BME280;63979;55.644;37.734;2023-07-20T18:11:24;99069.72;;;19.73;44.25
75409;BME280;63979;55.644;37.734;2023-07-20T18:16:24;99069.56;;;19.75;44.57
75409;BME280;63979;55.644;37.734;2023-07-20T18:21:26;99063.56;;;19.65;45.36
75409;BME280;63979;55.644;37.734;2023-07-20T18:26:26;99056.53;;;19.55;46.13
75409;BME280;63979;55.644;37.734;2023-07-20T18:31:28;99039.03;;;19.35;46.88
75409;BME280;63979;55.644;37.734;2023-07-20T18:36:29;99046.50;;;19.33;47.29
75409;BME280;63979;55.644;37.734;2023-07-20T18:41:31;99046.16;;;19.05;48.13
75409;BME280;63979;55.644;37.734;2023-07-20T18:46:32;99046.88;;;18.99;48.30
75409;BME280;63979;55.644;37.734;2023-07-20T18:51:33;99036.13;;;18.91;47.86
75409;BME280;63979;55.644;37.734;2023-07-20T18:56:34;99048.81;;;18.90;48.13
75409;BME280;63979;55.644;37.734;2023-07-20T19:01:35;99042.06;;;18.86;48.10
75409;BME280;63979;55.644;37.734;2023-07-20T19:06:36;99058.00;;;18.81;48.81
75409;BME280;63979;55.644;37.734;2023-07-20T19:11:37;99067.47;;;18.77;49.05
75409;BME280;63979;55.644;37.734;2023-07-20T19:16:38;99027.69;;;18.47;49.35
75409;BME280;63979;55.644;37.734;2023-07-20T19:21:40;99073.91;;;18.60;49.90
75409;BME280;63979;55.644;37.734;2023-07-20T19:26:41;99068.38;;;18.53;50.33
75409;BME280;63979;55.644;37.734;2023-07-20T19:31:42;99065.53;;;18.47;50.53
75409;BME280;63979;55.644;37.734;2023-07-20T19:36:43;99063.19;;;18.35;50.58
75409;BME280;63979;55.644;37.734;2023-07-20T19:41:44;99058.81;;;18.26;50.78
75409;BME280;63979;55.644;37.734;2023-07-20T19:46:45;99071.16;;;18.21;50.98
75409;BME280;63979;55.644;37.734;2023-07-20T19:51:47;99056.16;;;18.18;50.77
75409;BME280;63979;55.644;37.734;2023-07-20T19:56:48;99067.78;;;18.19;50.73
75409;BME280;63979;55.644;37.734;2023-07-20T20:01:49;99073.53;;;18.16;51.08
75409;BME280;63979;55.644;37.734;2023-07-20T20:06:50;99079.78;;;18.16;51.09
75409;BME280;63979;55.644;37.734;2023-07-20T20:11:52;99082.50;;;18.08;51.61
75409;BME280;63979;55.644;37.734;2023-07-20T20:16:53;99091.63;;;18.07;51.71
75409;BME280;63979;55.644;37.734;2023-07-20T20:21:54;99084.88;;;17.87;51.98
75409;BME280;63979;55.644;37.734;2023-07-20T20:27:01;99087.25;;;17.82;51.87
75409;BME280;63979;55.644;37.734;2023-07-20T20:32:02;99086.25;;;17.74;52.34
75409;BME280;63979;55.644;37.734;2023-07-20T20:37:05;99089.97;;;17.73;52.22
75409;BME280;63979;55.644;37.734;2023-07-20T20:42:06;99095.53;;;17.72;52.70
75409;BME280;63979;55.644;37.734;2023-07-20T20:47:07;99099.19;;;17.63;53.86
75409;BME280;63979;55.644;37.734;2023-07-20T20:52:09;99097.50;;;17.62;54.30
75409;BME280;63979;55.644;37.734;2023-07-20T20:57:09;99062.22;;;17.31;54.60
75409;BME280;63979;55.644;37.734;2023-07-20T21:02:11;99089.06;;;17.40;55.10
75409;BME280;63979;55.644;37.734;2023-07-20T21:07:18;99107.44;;;17.37;55.70
75409;BME280;63979;55.644;37.734;2023-07-20T21:12:19;99104.75;;;17.37;55.80
75409;BME280;63979;55.644;37.734;2023-07-20T21:17:20;99104.38;;;17.24;56.07
75409;BME280;63979;55.644;37.734;2023-07-20T21:22:21;99117.84;;;17.24;56.07
75409;BME280;63979;55.644;37.734;2023-07-20T21:27:23;99114.47;;;17.13;56.43
75409;BME280;63979;55.644;37.734;2023-07-20T21:32:24;99084.22;;;16.94;56.56
75409;BME280;63979;55.644;37.734;2023-07-20T21:37:25;99120.50;;;17.07;56.49
75409;BME280;63979;55.644;37.734;2023-07-20T21:42:26;99124.56;;;17.03;56.75
75409;BME280;63979;55.644;37.734;2023-07-20T21:47:27;99119.78;;;16.97;56.73
75409;BME280;63979;55.644;37.734;2023-07-20T21:52:28;99125.72;;;17.01;57.04
75409;BME280;63979;55.644;37.734;2023-07-20T21:57:29;99127.56;;;17.00;57.16
75409;BME280;63979;55.644;37.734;2023-07-20T22:02:30;99126.50;;;16.85;57.56
75409;BME280;63979;55.644;37.734;2023-07-20T22:07:32;99136.94;;;16.88;57.62
75409;BME280;63979;55.644;37.734;2023-07-20T22:12:34;99129.53;;;16.90;57.89
75409;BME280;63979;55.644;37.734;2023-07-20T22:17:35;99135.59;;;16.84;58.08
75409;BME280;63979;55.644;37.734;2023-07-20T22:22:37;99128.84;;;16.80;57.91
75409;BME280;63979;55.644;37.734;2023-07-20T22:27:41;99131.69;;;16.78;58.50
75409;BME280;63979;55.644;37.734;2023-07-20T22:32:43;99130.00;;;16.77;58.09
75409;BME280;63979;55.644;37.734;2023-07-20T22:37:44;99134.50;;;16.69;58.54
75409;BME280;63979;55.644;37.734;2023-07-20T22:42:45;99129.81;;;16.71;58.19
75409;BME280;63979;55.644;37.734;2023-07-20T22:47:47;99123.97;;;16.58;58.88
75409;BME280;63979;55.644;37.734;2023-07-20T22:52:48;99129.34;;;16.58;58.77
75409;BME280;63979;55.644;37.734;2023-07-20T22:57:49;99125.66;;;16.59;58.88
75409;BME280;63979;55.644;37.734;2023-07-20T23:02:54;99117.03;;;16.55;58.93
75409;BME280;63979;55.644;37.734;2023-07-20T23:07:55;99123.13;;;16.57;58.69
75409;BME280;63979;55.644;37.734;2023-07-20T23:12:56;99119.22;;;16.51;58.85
75409;BME280;63979;55.644;37.734;2023-07-20T23:17:58;99124.28;;;16.54;59.23
75409;BME280;63979;55.644;37.734;2023-07-20T23:22:59;99111.28;;;16.50;58.93
75409;BME280;63979;55.644;37.734;2023-07-20T23:28:00;99111.28;;;16.50;58.92
75409;BME280;63979;55.644;37.734;2023-07-20T23:33:01;99119.75;;;16.55;58.62
75409;BME280;63979;55.644;37.734;2023-07-20T23:38:02;99128.16;;;16.52;58.87
75409;BME280;63979;55.644;37.734;2023-07-20T23:43:03;99118.91;;;16.54;59.38
75409;BME280;63979;55.644;37.734;2023-07-20T23:48:07;99118.19;;;16.44;59.09
75409;BME280;63979;55.644;37.734;2023-07-20T23:53:13;99083.72;;;16.30;59.18
75409;BME280;63979;55.644;37.734;2023-07-20T23:58:14;99106.09;;;16.57;58.65
